createdAt,value
2017-10-17T00:00:18.104Z,84.90
2017-10-17T00:02:45.021Z,84.50
2017-10-17T00:05:12.741Z,85.00
2017-10-17T00:07:39.816Z,84.80
2017-10-17T00:10:06.792Z,84.60
2017-10-17T00:12:33.833Z,85.10
2017-10-17T00:15:03.098Z,85.80
2017-10-17T00:17:31.524Z,85.20
2017-10-17T00:19:58.565Z,84.40
2017-10-17T00:22:25.636Z,84.30
2017-10-17T00:25:07.664Z,85.00
2017-10-17T00:27:34.854Z,85.00
2017-10-17T00:30:01.846Z,84.90
2017-10-17T00:32:35.746Z,84.10
2017-10-17T00:35:02.739Z,83.30
2017-10-17T00:37:29.728Z,83.40
2017-10-17T00:39:56.849Z,84.00
2017-10-17T00:42:23.889Z,83.90
2017-10-17T00:44:50.925Z,84.30
2017-10-17T00:47:17.904Z,84.10
2017-10-17T00:49:44.923Z,84.10
2017-10-17T00:52:11.905Z,83.80
2017-10-17T00:54:38.945Z,83.80
2017-10-17T00:57:05.996Z,84.30
2017-10-17T00:59:33.844Z,84.20
2017-10-17T01:02:00.919Z,84.00
2017-10-17T01:04:27.952Z,84.50
2017-10-17T01:06:55.116Z,84.50
2017-10-17T01:09:22.089Z,83.80
2017-10-17T01:11:49.105Z,84.20
2017-10-17T01:14:16.137Z,84.10
2017-10-17T01:16:43.117Z,83.90
2017-10-17T01:19:10.167Z,83.60
2017-10-17T01:21:37.398Z,83.70
2017-10-17T01:24:05.202Z,83.30
2017-10-17T01:26:32.230Z,83.30
2017-10-17T01:29:03.435Z,83.60
2017-10-17T01:31:30.496Z,83.50
2017-10-17T01:33:57.570Z,84.00
2017-10-17T01:36:24.512Z,83.30
2017-10-17T01:38:59.148Z,83.60
2017-10-17T01:41:26.931Z,83.20
2017-10-17T01:43:58.567Z,83.10
2017-10-17T01:46:25.556Z,83.10
2017-10-17T01:48:53.602Z,82.90
2017-10-17T01:51:31.980Z,83.00
2017-10-17T01:54:15.601Z,82.90
2017-10-17T01:56:42.633Z,83.00
2017-10-17T01:59:13.453Z,83.70
2017-10-17T02:01:40.660Z,83.20
2017-10-17T02:04:08.539Z,83.60
2017-10-17T02:06:36.917Z,84.10
2017-10-17T02:09:04.239Z,84.00
2017-10-17T02:11:31.493Z,83.80
2017-10-17T02:14:00.513Z,83.80
2017-10-17T02:16:28.355Z,84.00
2017-10-17T02:19:14.892Z,84.00
2017-10-17T02:21:45.648Z,84.60
2017-10-17T02:24:21.407Z,84.00
2017-10-17T02:26:49.295Z,84.00
2017-10-17T02:29:19.139Z,83.70
2017-10-17T02:31:47.111Z,83.50
2017-10-17T02:34:19.978Z,83.80
2017-10-17T02:36:49.910Z,83.20
2017-10-17T02:39:17.148Z,82.60
2017-10-17T02:41:44.939Z,83.00
2017-10-17T02:44:12.284Z,82.60
2017-10-17T02:46:47.985Z,82.20
2017-10-17T02:49:20.624Z,82.90
2017-10-17T02:51:47.821Z,82.90
2017-10-17T02:54:16.972Z,82.20
2017-10-17T02:56:44.568Z,81.60
2017-10-17T02:59:14.044Z,82.80
2017-10-17T03:01:47.944Z,82.80
2017-10-17T03:04:20.896Z,83.10
2017-10-17T03:06:49.108Z,82.80
2017-10-17T03:09:16.369Z,82.40
2017-10-17T03:11:45.460Z,82.00
2017-10-17T03:14:19.115Z,82.40
2017-10-17T03:16:46.627Z,82.20
2017-10-17T03:19:15.019Z,82.60
2017-10-17T03:22:02.089Z,82.10
2017-10-17T03:24:33.564Z,82.30
2017-10-17T03:27:01.420Z,82.80
2017-10-17T03:29:29.005Z,83.60
2017-10-17T03:31:56.517Z,84.50
2017-10-17T03:34:24.191Z,85.80
2017-10-17T03:36:59.675Z,84.80
2017-10-17T03:39:27.296Z,84.50
2017-10-17T03:41:55.018Z,83.80
2017-10-17T03:44:24.820Z,82.60
2017-10-17T03:46:52.125Z,82.60
2017-10-17T03:49:22.432Z,82.40
2017-10-17T03:51:51.202Z,82.40
2017-10-17T03:54:23.852Z,82.50
2017-10-17T03:56:51.514Z,82.90
2017-10-17T03:59:19.943Z,82.70
2017-10-17T04:01:49.901Z,82.60
2017-10-17T04:04:25.168Z,82.60
2017-10-17T04:07:15.886Z,82.40
2017-10-17T04:12:57.880Z,82.40
2017-10-17T04:15:26.152Z,82.30
2017-10-17T04:18:10.620Z,82.50
2017-10-17T04:20:43.417Z,82.70
2017-10-17T04:23:11.505Z,82.80
2017-10-17T04:25:45.980Z,83.30
2017-10-17T04:28:42.901Z,83.20
2017-10-17T04:31:27.190Z,83.00
2017-10-17T04:34:00.677Z,83.00
2017-10-17T04:36:34.238Z,83.30
2017-10-17T04:39:03.717Z,83.00
2017-10-17T04:41:43.938Z,82.80
2017-10-17T04:44:35.984Z,83.70
2017-10-17T04:47:07.968Z,83.50
2017-10-17T04:49:48.233Z,83.60
2017-10-17T04:52:17.355Z,83.90
2017-10-17T04:54:50.218Z,83.10
2017-10-17T04:57:19.712Z,83.20
2017-10-17T05:00:04.270Z,83.30
2017-10-17T05:02:56.516Z,83.60
2017-10-17T05:05:42.521Z,84.20
2017-10-17T05:08:17.329Z,83.30
2017-10-17T05:10:50.459Z,82.70
2017-10-17T05:13:42.496Z,82.70
2017-10-17T05:16:14.213Z,81.60
2017-10-17T05:18:57.613Z,81.60
2017-10-17T05:21:25.485Z,82.30
2017-10-17T05:23:55.493Z,82.10
2017-10-17T05:26:23.300Z,82.10
2017-10-17T05:29:07.649Z,82.70
2017-10-17T05:31:38.427Z,83.80
2017-10-17T05:34:31.147Z,83.70
2017-10-17T05:37:01.456Z,83.00
2017-10-17T05:39:30.193Z,84.00
2017-10-17T05:41:58.235Z,84.20
2017-10-17T05:44:27.366Z,84.20
2017-10-17T05:46:56.691Z,84.40
2017-10-17T05:49:52.432Z,84.30
2017-10-17T05:52:20.113Z,83.90
2017-10-17T05:54:47.464Z,82.60
2017-10-17T05:57:14.995Z,82.90
2017-10-17T05:59:43.640Z,83.30
2017-10-17T06:02:11.720Z,82.60
2017-10-17T06:04:38.902Z,82.20
2017-10-17T06:07:06.464Z,81.80
2017-10-17T06:09:34.750Z,82.60
2017-10-17T06:12:19.825Z,81.60
2017-10-17T06:14:48.740Z,82.20
2017-10-17T06:17:15.825Z,83.00
2017-10-17T06:19:43.246Z,82.80
2017-10-17T06:22:10.857Z,83.30
2017-10-17T06:24:39.266Z,84.50
2017-10-17T06:27:06.641Z,84.50
2017-10-17T06:29:34.614Z,84.20
2017-10-17T06:32:02.260Z,84.80
2017-10-17T06:34:29.527Z,84.50
2017-10-17T06:36:58.974Z,84.20
2017-10-17T06:39:32.812Z,83.60
2017-10-17T06:42:02.085Z,83.50
2017-10-17T06:44:30.233Z,82.90
2017-10-17T06:46:58.484Z,82.90
2017-10-17T06:49:25.681Z,82.90
2017-10-17T06:51:53.348Z,82.60
2017-10-17T06:54:23.434Z,82.50
2017-10-17T06:56:51.405Z,82.50
2017-10-17T06:59:20.492Z,83.50
2017-10-17T07:01:47.597Z,83.80
2017-10-17T07:04:15.523Z,83.70
2017-10-17T07:06:44.691Z,84.00
2017-10-17T07:09:24.662Z,83.80
2017-10-17T07:11:56.132Z,83.00
2017-10-17T07:14:26.440Z,81.90
2017-10-17T07:16:53.963Z,81.60
2017-10-17T07:19:21.387Z,81.20
2017-10-17T07:21:50.268Z,81.10
2017-10-17T07:24:17.337Z,80.70
2017-10-17T07:26:44.264Z,79.90
2017-10-17T07:29:11.906Z,78.50
2017-10-17T07:31:51.413Z,76.50
2017-10-17T07:34:19.316Z,74.30
2017-10-17T07:36:47.420Z,72.00
2017-10-17T07:39:15.184Z,70.50
2017-10-17T07:41:42.683Z,69.60
2017-10-17T07:44:09.964Z,68.90
2017-10-17T07:46:43.284Z,67.70
2017-10-17T07:49:15.840Z,65.80
2017-10-17T07:51:44.840Z,62.70
2017-10-17T07:54:14.317Z,59.80
2017-10-17T07:56:43.532Z,58.20
2017-10-17T07:59:14.110Z,56.40
2017-10-17T08:01:49.541Z,54.80
2017-10-17T08:04:17.592Z,53.80
2017-10-17T08:06:47.202Z,52.70
2017-10-17T08:09:17.384Z,51.90
2017-10-17T08:11:57.612Z,51.20
2017-10-17T08:14:29.988Z,49.30
2017-10-17T08:17:00.520Z,48.10
2017-10-17T08:19:34.153Z,47.50
2017-10-17T08:22:02.566Z,46.20
2017-10-17T08:24:29.854Z,45.50
2017-10-17T08:27:02.109Z,46.40
2017-10-17T08:29:31.995Z,46.70
2017-10-17T08:32:00.427Z,47.30
2017-10-17T08:34:28.205Z,46.00
2017-10-17T08:36:55.675Z,46.10
2017-10-17T08:39:24.092Z,45.60
2017-10-17T08:41:58.048Z,45.70
2017-10-17T08:44:30.538Z,46.00
2017-10-17T08:47:00.330Z,45.80
2017-10-17T08:49:28.369Z,45.80
2017-10-17T08:51:55.968Z,45.40
2017-10-17T08:54:34.646Z,45.30
2017-10-17T08:57:08.651Z,45.80
2017-10-17T08:59:37.714Z,43.60
2017-10-17T09:02:08.148Z,43.60
2017-10-17T09:04:35.263Z,43.60
2017-10-17T09:07:10.310Z,42.70
2017-10-17T09:09:44.498Z,42.70
2017-10-17T09:12:16.338Z,41.70
2017-10-17T09:14:49.560Z,42.30
2017-10-17T09:17:20.332Z,44.40
2017-10-17T09:19:47.453Z,44.40
2017-10-17T09:22:15.126Z,47.30
2017-10-17T09:24:42.390Z,48.00
2017-10-17T09:27:10.340Z,53.30
2017-10-17T09:29:37.367Z,52.70
2017-10-17T09:32:04.589Z,53.10
2017-10-17T09:34:31.745Z,53.90
2017-10-17T09:36:59.546Z,54.50
2017-10-17T09:39:28.365Z,54.20
2017-10-17T09:41:56.665Z,55.60
2017-10-17T09:44:27.854Z,56.20
2017-10-17T09:46:57.482Z,56.60
2017-10-17T09:49:33.893Z,55.30
2017-10-17T09:52:05.528Z,54.50
2017-10-17T09:54:37.340Z,55.30
2017-10-17T09:57:06.769Z,55.20
2017-10-17T09:59:34.684Z,57.30
2017-10-17T10:02:02.075Z,55.30
2017-10-17T10:04:39.496Z,56.10
2017-10-17T10:07:09.419Z,55.60
2017-10-17T10:09:40.495Z,57.00
2017-10-17T10:12:13.951Z,56.40
2017-10-17T10:14:41.680Z,57.50
2017-10-17T10:17:13.622Z,56.90
2017-10-17T10:19:42.243Z,55.80
2017-10-17T10:22:11.496Z,54.20
2017-10-17T10:24:39.672Z,52.90
2017-10-17T10:27:07.688Z,54.70
2017-10-17T10:29:35.391Z,53.80
2017-10-17T10:32:03.760Z,53.10
2017-10-17T10:34:31.726Z,53.10
2017-10-17T10:36:58.777Z,53.50
2017-10-17T10:39:36.889Z,53.20
2017-10-17T10:42:07.059Z,53.40
2017-10-17T10:44:36.108Z,52.70
2017-10-17T10:47:04.250Z,53.40
2017-10-17T10:49:32.122Z,52.90
2017-10-17T10:52:00.857Z,50.50
2017-10-17T10:54:28.748Z,51.90
2017-10-17T10:56:58.174Z,51.90
2017-10-17T10:59:26.461Z,52.20
2017-10-17T11:01:55.014Z,53.10
2017-10-17T11:04:25.166Z,52.30
2017-10-17T11:06:53.583Z,52.60
2017-10-17T11:09:22.096Z,50.90
2017-10-17T11:11:51.296Z,53.10
2017-10-17T11:14:18.611Z,52.50
2017-10-17T11:16:46.313Z,52.20
2017-10-17T11:19:14.489Z,52.10
2017-10-17T11:21:41.665Z,53.40
2017-10-17T11:24:13.931Z,52.90
2017-10-17T11:29:19.896Z,51.70
2017-10-17T11:31:52.487Z,52.10
2017-10-17T11:34:25.122Z,52.00
2017-10-17T11:37:02.895Z,51.90
2017-10-17T11:39:35.874Z,51.20
2017-10-17T11:42:21.031Z,51.20
2017-10-17T11:44:55.107Z,52.90
2017-10-17T11:47:29.610Z,53.90
2017-10-17T11:50:02.312Z,53.80
2017-10-17T11:52:39.051Z,55.40
2017-10-17T11:55:15.004Z,55.00
2017-10-17T11:57:48.555Z,55.30
2017-10-17T12:00:20.958Z,55.30
2017-10-17T12:02:56.330Z,55.90
2017-10-17T12:05:28.886Z,55.50
2017-10-17T12:08:10.881Z,55.70
2017-10-17T12:10:42.565Z,55.50
2017-10-17T12:13:15.826Z,55.80
2017-10-17T12:15:52.535Z,56.30
2017-10-17T12:18:28.092Z,56.80
2017-10-17T12:21:00.438Z,55.90
2017-10-17T12:23:29.493Z,55.10
2017-10-17T12:26:01.683Z,54.90
2017-10-17T12:28:39.151Z,53.50
2017-10-17T12:31:08.918Z,54.50
2017-10-17T12:33:38.689Z,55.30
2017-10-17T12:36:11.671Z,54.60
2017-10-17T12:38:42.848Z,54.60
2017-10-17T12:41:12.033Z,54.80
2017-10-17T12:46:28.286Z,54.20
2017-10-17T12:48:59.615Z,54.90
2017-10-17T12:54:24.290Z,55.90
2017-10-17T12:59:44.669Z,54.20
2017-10-17T13:02:28.310Z,54.10
2017-10-17T13:05:07.090Z,54.70
2017-10-17T13:07:41.425Z,53.90
2017-10-17T13:10:08.645Z,54.20
2017-10-17T13:12:36.452Z,53.40
2017-10-17T13:15:03.711Z,53.70
2017-10-17T13:17:31.973Z,53.10
2017-10-17T13:20:00.788Z,54.20
2017-10-17T13:22:28.880Z,53.80
2017-10-17T13:24:57.138Z,55.10
2017-10-17T13:27:25.252Z,54.40
2017-10-17T13:29:52.271Z,54.20
2017-10-17T13:32:19.846Z,54.90
2017-10-17T13:34:50.232Z,54.40
2017-10-17T13:37:17.665Z,54.40
2017-10-17T13:39:44.629Z,55.70
2017-10-17T13:42:12.543Z,55.30
2017-10-17T13:44:40.571Z,55.20
2017-10-17T13:47:07.906Z,55.30
2017-10-17T13:49:35.217Z,54.10
2017-10-17T13:52:03.157Z,55.30
2017-10-17T13:54:30.273Z,54.70
2017-10-17T13:56:58.678Z,55.80
2017-10-17T13:59:25.949Z,55.70
2017-10-17T14:01:52.985Z,55.20
2017-10-17T14:04:20.432Z,55.80
2017-10-17T14:06:47.493Z,55.70
2017-10-17T14:09:15.661Z,55.70
2017-10-17T14:11:42.875Z,55.50
2017-10-17T14:14:10.589Z,55.60
2017-10-17T14:16:38.194Z,55.60
2017-10-17T14:19:06.507Z,56.40
2017-10-17T14:21:33.597Z,56.30
2017-10-17T14:24:01.749Z,56.20
2017-10-17T14:26:29.154Z,56.50
2017-10-17T14:28:58.004Z,56.50
2017-10-17T14:31:25.075Z,56.50
2017-10-17T14:33:52.708Z,56.90
2017-10-17T14:36:21.604Z,56.90
2017-10-17T14:38:50.003Z,56.90
2017-10-17T14:41:17.116Z,58.00
2017-10-17T14:43:45.814Z,57.50
2017-10-17T14:46:12.893Z,57.60
2017-10-17T14:48:39.985Z,57.90
2017-10-17T14:51:07.773Z,58.50
2017-10-17T14:53:36.006Z,58.20
2017-10-17T14:56:04.189Z,57.30
2017-10-17T14:58:33.125Z,57.00
2017-10-17T15:01:00.102Z,57.00
2017-10-17T15:03:27.347Z,57.20
2017-10-17T15:05:55.765Z,57.70
2017-10-17T15:08:23.673Z,57.70
2017-10-17T15:10:50.560Z,57.70
2017-10-17T15:13:19.608Z,59.00
2017-10-17T15:15:48.406Z,59.00
2017-10-17T15:18:15.856Z,59.20
2017-10-17T15:20:46.385Z,59.70
2017-10-17T15:23:13.604Z,60.00
2017-10-17T15:25:41.026Z,60.60
2017-10-17T15:28:08.252Z,61.50
2017-10-17T15:30:35.638Z,61.90
2017-10-17T15:33:03.690Z,61.90
2017-10-17T15:35:30.566Z,62.90
2017-10-17T15:37:58.453Z,64.10
2017-10-17T15:40:26.448Z,66.40
2017-10-17T15:42:54.830Z,66.30
2017-10-17T15:45:23.020Z,67.90
2017-10-17T15:47:50.093Z,69.10
2017-10-17T15:50:17.115Z,69.00
2017-10-17T15:52:44.793Z,69.60
2017-10-17T15:55:12.729Z,70.20
2017-10-17T15:57:41.436Z,70.60
2017-10-17T16:00:08.759Z,70.90
2017-10-17T16:02:35.885Z,71.20
2017-10-17T16:05:03.644Z,73.30
2017-10-17T16:07:30.547Z,72.60
2017-10-17T16:09:57.451Z,72.90
2017-10-17T16:12:25.429Z,73.80
2017-10-17T16:14:52.589Z,73.90
2017-10-17T16:17:20.492Z,74.70
2017-10-17T16:19:47.791Z,74.90
2017-10-17T16:22:16.736Z,75.80
2017-10-17T16:24:44.097Z,75.70
2017-10-17T16:27:11.341Z,76.10
2017-10-17T16:29:38.362Z,76.60
2017-10-17T16:32:07.769Z,77.10
2017-10-17T16:34:35.763Z,77.40
2017-10-17T16:37:02.815Z,77.10
2017-10-17T16:39:31.622Z,77.90
2017-10-17T16:42:02.576Z,78.60
2017-10-17T16:44:32.287Z,78.70
2017-10-17T16:47:07.850Z,78.80
2017-10-17T16:49:35.268Z,79.40
2017-10-17T16:52:03.400Z,78.70
2017-10-17T16:54:30.460Z,79.00
2017-10-17T16:56:57.954Z,79.40
2017-10-17T16:59:26.365Z,79.40
2017-10-17T17:01:55.528Z,79.20
2017-10-17T17:04:22.915Z,79.30
2017-10-17T17:06:50.933Z,81.20
2017-10-17T17:09:18.767Z,80.60
2017-10-17T17:11:46.456Z,81.20
2017-10-17T17:14:13.844Z,81.20
2017-10-17T17:16:40.865Z,81.30
2017-10-17T17:19:20.028Z,81.90
2017-10-17T17:21:47.902Z,81.50
2017-10-17T17:24:16.215Z,81.90
2017-10-17T17:26:44.701Z,82.30
2017-10-17T17:29:12.217Z,82.30
2017-10-17T17:31:40.127Z,82.50
2017-10-17T17:34:07.583Z,82.50
2017-10-17T17:36:35.805Z,82.50
2017-10-17T17:39:03.937Z,82.50
2017-10-17T17:41:31.509Z,82.60
2017-10-17T17:43:58.869Z,82.50
2017-10-17T17:46:27.554Z,82.00
2017-10-17T17:48:55.084Z,82.10
2017-10-17T17:51:22.508Z,82.10
2017-10-17T17:53:51.453Z,82.00
2017-10-17T17:56:18.347Z,82.20
2017-10-17T17:58:47.029Z,82.20
2017-10-17T18:01:14.560Z,82.20
2017-10-17T18:03:42.519Z,82.50
2017-10-17T18:06:09.569Z,83.20
2017-10-17T18:08:36.918Z,83.10
2017-10-17T18:11:05.536Z,83.10
2017-10-17T18:13:35.241Z,83.10
2017-10-17T18:16:02.759Z,83.20
2017-10-17T18:18:30.080Z,82.50
2017-10-17T18:20:58.164Z,82.60
2017-10-17T18:23:25.705Z,82.60
2017-10-17T18:25:53.227Z,82.30
2017-10-17T18:28:21.000Z,82.90
2017-10-17T18:30:48.475Z,82.40
2017-10-17T18:33:16.008Z,82.50
2017-10-17T18:35:45.194Z,82.80
2017-10-17T18:38:14.999Z,82.70
2017-10-17T18:40:43.380Z,83.50
2017-10-17T18:43:10.913Z,83.50
2017-10-17T18:45:39.865Z,83.90
2017-10-17T18:48:06.806Z,83.80
2017-10-17T18:50:35.540Z,83.50
2017-10-17T18:53:03.201Z,83.90
2017-10-17T18:55:31.594Z,84.10
2017-10-17T18:58:00.203Z,84.20
2017-10-17T19:00:29.313Z,83.70
2017-10-17T19:02:56.667Z,83.70
2017-10-17T19:05:25.681Z,83.90
2017-10-17T19:07:53.077Z,83.90
2017-10-17T19:10:20.681Z,83.70
2017-10-17T19:12:48.080Z,83.70
2017-10-17T19:15:15.798Z,83.60
2017-10-17T19:17:47.857Z,83.70
2017-10-17T19:20:15.514Z,83.70
2017-10-17T19:22:42.994Z,83.60
2017-10-17T19:25:10.580Z,83.90
2017-10-17T19:27:38.331Z,82.90
2017-10-17T19:30:05.724Z,81.90
2017-10-17T19:32:33.692Z,82.40
2017-10-17T19:35:01.053Z,82.40
2017-10-17T19:37:28.041Z,81.90
2017-10-17T19:39:56.372Z,81.90
2017-10-17T19:42:23.481Z,81.90
2017-10-17T19:44:51.366Z,81.60
2017-10-17T19:47:20.557Z,82.10
2017-10-17T19:49:48.744Z,82.00
2017-10-17T19:52:16.266Z,82.80
2017-10-17T19:54:43.429Z,82.00
2017-10-17T19:57:11.518Z,82.50
2017-10-17T19:59:39.109Z,82.50
2017-10-17T20:02:06.441Z,83.50
2017-10-17T20:04:35.959Z,83.30
2017-10-17T20:07:03.649Z,83.40
2017-10-17T20:09:30.627Z,83.30
2017-10-17T20:11:59.922Z,83.40
2017-10-17T20:14:30.807Z,84.10
2017-10-17T20:16:58.005Z,83.40
2017-10-17T20:19:25.645Z,83.90
2017-10-17T20:21:54.866Z,84.20
2017-10-17T20:24:22.543Z,84.10
2017-10-17T20:26:50.088Z,84.00
2017-10-17T20:29:18.336Z,84.30
2017-10-17T20:31:46.001Z,83.90
2017-10-17T20:34:17.271Z,83.70
2017-10-17T20:36:45.297Z,84.30
2017-10-17T20:39:12.719Z,84.00
2017-10-17T20:41:40.560Z,83.90
2017-10-17T20:44:07.833Z,83.80
2017-10-17T20:46:34.964Z,83.80
2017-10-17T20:49:04.486Z,83.10
2017-10-17T20:51:34.778Z,83.20
2017-10-17T20:54:01.862Z,83.70
2017-10-17T20:56:29.540Z,83.70
2017-10-17T20:59:06.509Z,83.90
2017-10-17T21:01:35.396Z,83.90
2017-10-17T21:04:05.065Z,84.70
2017-10-17T21:06:37.472Z,84.60
2017-10-17T21:09:07.324Z,84.50
2017-10-17T21:11:36.528Z,83.70
2017-10-17T21:14:03.893Z,83.50
2017-10-17T21:16:30.812Z,83.50
2017-10-17T21:18:58.516Z,84.50
2017-10-17T21:21:25.540Z,84.60
2017-10-17T21:23:52.593Z,84.40
2017-10-17T21:26:19.661Z,85.10
2017-10-17T21:28:50.243Z,86.40
2017-10-17T21:31:19.232Z,86.10
2017-10-17T21:33:46.497Z,86.20
2017-10-17T21:36:13.816Z,85.90
2017-10-17T21:38:41.380Z,86.70
2017-10-17T21:41:09.916Z,86.50
2017-10-17T21:43:51.638Z,87.00
2017-10-17T21:46:21.188Z,86.60
2017-10-17T21:48:48.540Z,86.20
2017-10-17T21:51:15.699Z,87.00
2017-10-17T21:53:43.744Z,86.60
2017-10-17T21:56:10.888Z,86.50
2017-10-17T21:58:39.012Z,86.10
2017-10-17T22:01:06.925Z,86.20
2017-10-17T22:03:34.440Z,86.70
2017-10-17T22:06:03.758Z,86.20
2017-10-17T22:08:31.466Z,86.20
2017-10-17T22:10:58.631Z,86.10
2017-10-17T22:13:26.260Z,85.60
2017-10-17T22:15:54.808Z,85.30
2017-10-17T22:18:25.335Z,85.70
2017-10-17T22:20:54.285Z,85.80
2017-10-17T22:23:21.319Z,85.80
2017-10-17T22:25:49.104Z,85.50
2017-10-17T22:28:16.684Z,85.70
2017-10-17T22:30:44.177Z,86.20
2017-10-17T22:33:11.798Z,86.50
2017-10-17T22:35:39.501Z,86.80
2017-10-17T22:38:07.844Z,86.60
2017-10-17T22:40:35.146Z,86.50
2017-10-17T22:43:09.588Z,87.10
2017-10-17T22:45:36.605Z,86.90
2017-10-17T22:48:04.195Z,87.00
2017-10-17T22:50:31.647Z,86.70
2017-10-17T22:52:59.108Z,86.40
2017-10-17T22:55:30.597Z,86.60
2017-10-17T22:57:59.248Z,86.00
2017-10-17T23:00:26.673Z,85.90
2017-10-17T23:02:54.206Z,86.50
2017-10-17T23:05:21.987Z,86.70
2017-10-17T23:07:49.826Z,86.60
2017-10-17T23:10:17.069Z,86.60
2017-10-17T23:12:44.608Z,86.10
2017-10-17T23:15:11.633Z,86.20
2017-10-17T23:17:50.976Z,85.70
2017-10-17T23:20:41.536Z,85.70
2017-10-17T23:23:09.368Z,85.90
2017-10-17T23:25:36.497Z,86.60
2017-10-17T23:28:04.042Z,86.70
2017-10-17T23:30:31.245Z,86.90
2017-10-17T23:32:58.943Z,86.60
2017-10-17T23:35:30.886Z,86.40
2017-10-17T23:38:01.099Z,86.40
2017-10-17T23:40:29.617Z,86.60
2017-10-17T23:42:57.691Z,85.90
2017-10-17T23:45:27.962Z,86.40
2017-10-17T23:47:55.451Z,86.50
2017-10-17T23:50:25.541Z,87.00
2017-10-17T23:52:52.596Z,86.50
2017-10-17T23:55:19.857Z,86.40
2017-10-17T23:57:48.504Z,86.70
